Time;durP1;ratioP1;P1;durP2;ratioP2;P2;SDS_P1;SDS_P2;PMS_P1;PMS_P2;Temp;Humidity;BMP_temperature;BMP_pressure;BME280_temperature;BME280_humidity;BME280_pressure;Samples;Min_cycle;Max_cycle;Signal;HPM_P1;HPM_P2
2022/09/30 00:01:05;;;;;;;9.80;6.15;;;;;;;8.49;81.67;97408.72;7383784;19;20015;-75
2022/09/30 00:03:32;;;;;;;8.80;6.88;;;;;;;8.47;81.49;97400.97;7386465;19;20062;-74
2022/09/30 00:06:01;;;;;;;14.60;6.47;;;;;;;8.44;81.62;97395.22;7383066;19;20010;-75
2022/09/30 00:08:35;;;;;;;10.75;6.00;;;;;;;8.40;81.58;97399.16;7382471;19;20521;-75
2022/09/30 00:11:05;;;;;;;8.55;5.85;;;;;;;8.51;81.63;97401.47;7382492;19;20046;-75
2022/09/30 00:13:34;;;;;;;8.70;6.13;;;;;;;8.59;82.08;97401.47;7383852;19;20052;-75
2022/09/30 00:16:01;;;;;;;7.40;6.13;;;;;;;8.68;81.92;97408.34;7386139;19;20010;-75
2022/09/30 00:18:28;;;;;;;7.22;5.43;;;;;;;8.71;82.03;97402.75;7385987;19;20018;-75
2022/09/30 00:20:55;;;;;;;9.43;5.57;;;;;;;8.81;81.76;97401.75;7383321;19;20014;-75
2022/09/30 00:23:23;;;;;;;9.02;6.30;;;;;;;8.89;81.60;97407.81;7387848;19;20786;-75
2022/09/30 00:25:50;;;;;;;11.80;7.25;;;;;;;8.86;81.65;97410.81;7384337;19;20015;-75
2022/09/30 00:28:17;;;;;;;9.00;5.80;;;;;;;8.84;81.81;97406.69;7391400;19;20018;-75
2022/09/30 00:30:44;;;;;;;10.25;6.25;;;;;;;8.81;81.88;97409.66;7391626;19;20466;-75
2022/09/30 00:33:10;;;;;;;14.73;6.40;;;;;;;8.99;81.44;97402.38;7393360;19;20046;-74
2022/09/30 00:35:37;;;;;;;9.30;5.70;;;;;;;9.05;81.44;97404.31;7393908;19;20019;-75
2022/09/30 00:38:04;;;;;;;11.45;6.28;;;;;;;9.09;81.16;97418.81;7389023;19;20034;-75
2022/09/30 00:40:30;;;;;;;11.45;6.90;;;;;;;9.13;80.95;97411.38;7387488;19;20022;-75
2022/09/30 00:42:58;;;;;;;11.57;6.22;;;;;;;9.13;81.09;97412.19;7388158;19;20017;-75
2022/09/30 00:45:26;;;;;;;11.20;6.90;;;;;;;9.10;81.26;97412.53;7392123;19;20038;-75
2022/09/30 00:48:04;;;;;;;10.90;6.45;;;;;;;9.14;81.18;97413.88;7390117;19;20482;-75
2022/09/30 00:50:45;;;;;;;10.43;6.60;;;;;;;9.13;80.95;97406.91;7389510;19;20035;-74
2022/09/30 00:53:20;;;;;;;13.43;6.38;;;;;;;9.09;80.45;97407.44;7392257;19;20025;-75
2022/09/30 00:55:54;;;;;;;8.35;5.60;;;;;;;9.04;80.62;97413.22;7388343;19;20018;-75
2022/09/30 00:58:30;;;;;;;11.30;5.85;;;;;;;9.04;80.38;97418.50;7385908;19;20011;-75
2022/09/30 01:01:00;;;;;;;10.13;6.18;;;;;;;8.96;80.71;97414.06;7389019;19;20018;-75
2022/09/30 01:03:30;;;;;;;12.80;6.30;;;;;;;8.92;81.33;97418.03;7391795;19;20474;-75
2022/09/30 01:05:57;;;;;;;10.10;6.18;;;;;;;9.05;81.09;97425.41;7387495;19;20010;-75
2022/09/30 01:08:24;;;;;;;10.05;6.60;;;;;;;9.05;81.34;97435.16;7385307;19;20018;-74
2022/09/30 01:10:51;;;;;;;7.75;6.20;;;;;;;9.07;81.12;97434.00;7388271;19;20015;-75
2022/09/30 01:13:19;;;;;;;9.15;5.95;;;;;;;9.01;81.39;97429.41;7389311;19;20026;-75
2022/09/30 01:15:49;;;;;;;10.73;6.65;;;;;;;8.98;81.18;97433.19;7390425;19;20017;-75
2022/09/30 01:18:37;;;;;;;10.43;5.60;;;;;;;9.01;80.64;97429.41;7390400;19;20365;-75
2022/09/30 01:21:48;;;;;;;8.68;5.60;;;;;;;8.99;80.31;97437.47;7388540;19;20014;-75
2022/09/30 01:24:53;;;;;;;12.23;6.28;;;;;;;8.81;80.35;97441.31;7390280;19;20018;-75
2022/09/30 01:27:32;;;;;;;11.68;6.50;;;;;;;8.71;80.59;97433.56;7388710;19;20380;-75
2022/09/30 01:30:06;;;;;;;11.15;6.68;;;;;;;8.68;80.74;97432.09;7387744;19;20022;-75
2022/09/30 01:32:52;;;;;;;8.07;5.25;;;;;;;8.72;80.62;97435.22;7385660;19;20048;-75
2022/09/30 01:35:40;;;;;;;10.90;5.65;;;;;;;8.63;81.12;97429.13;7391775;19;20093;-75
2022/09/30 01:38:23;;;;;;;12.18;6.00;;;;;;;8.71;81.30;97423.84;7391512;19;20022;-75
2022/09/30 01:41:03;;;;;;;9.30;5.65;;;;;;;8.79;80.83;97430.91;7387473;19;20039;-75
2022/09/30 01:43:33;;;;;;;9.52;6.47;;;;;;;8.89;80.51;97428.09;7388473;19;20474;-75
2022/09/30 01:46:09;;;;;;;7.65;5.82;;;;;;;8.94;80.35;97431.06;7386840;19;20042;-74
2022/09/30 01:48:55;;;;;;;10.77;5.68;;;;;;;8.95;80.12;97422.16;7384363;19;20047;-75
2022/09/30 01:51:33;;;;;;;8.20;6.60;;;;;;;8.78;79.78;97422.19;7387919;19;20623;-76
2022/09/30 01:54:06;;;;;;;8.45;5.65;;;;;;;8.67;80.03;97417.28;7389090;19;20018;-75
2022/09/30 01:56:46;;;;;;;9.05;6.72;;;;;;;8.57;79.94;97427.97;7388050;19;20364;-74
2022/09/30 01:59:24;;;;;;;8.27;5.75;;;;;;;8.51;79.98;97428.66;7388818;19;20051;-75
2022/09/30 02:01:56;;;;;;;11.82;6.18;;;;;;;8.49;79.90;97437.72;7385039;19;20031;-75
2022/09/30 02:04:31;;;;;;;11.17;6.93;;;;;;;8.40;80.48;97436.91;7385895;19;20128;-75
2022/09/30 02:07:02;;;;;;;15.15;6.63;;;;;;;8.39;80.66;97437.03;7384673;19;20018;-74
2022/09/30 02:09:38;;;;;;;11.18;6.55;;;;;;;8.30;81.64;97447.56;7389037;19;20018;-75
2022/09/30 02:12:08;;;;;;;8.95;6.85;;;;;;;8.41;82.01;97458.81;7387837;19;20092;-75
2022/09/30 02:14:41;;;;;;;12.20;6.65;;;;;;;8.33;81.95;97464.88;7386545;19;20010;-75
2022/09/30 02:17:32;;;;;;;10.40;7.85;;;;;;;8.19;82.24;97465.50;7385121;19;20050;-75
2022/09/30 02:20:03;;;;;;;15.10;7.38;;;;;;;8.15;82.08;97470.28;7385994;19;20014;-75
2022/09/30 02:22:39;;;;;;;16.08;8.75;;;;;;;8.12;82.38;97479.31;7384016;19;20030;-75
2022/09/30 02:25:08;;;;;;;11.32;7.93;;;;;;;8.18;82.04;97475.22;7389389;19;20697;-75
2022/09/30 02:27:41;;;;;;;12.23;8.02;;;;;;;8.10;81.80;97468.13;7387406;19;20074;-75
2022/09/30 02:30:09;;;;;;;15.40;8.38;;;;;;;8.16;82.28;97464.00;7387204;19;20044;-75
2022/09/30 02:32:58;;;;;;;8.65;6.60;;;;;;;8.17;81.90;97475.41;7387448;19;20026;-75
2022/09/30 02:35:49;;;;;;;10.70;8.00;;;;;;;8.12;81.97;97473.25;7385405;19;20481;-75
2022/09/30 02:38:40;;;;;;;10.82;6.75;;;;;;;8.16;81.78;97482.44;7384440;19;20006;-75
2022/09/30 02:41:36;;;;;;;14.75;7.47;;;;;;;8.18;82.00;97479.66;7385824;19;20038;-75
2022/09/30 02:44:03;;;;;;;12.73;7.07;;;;;;;8.29;81.57;97480.19;7384388;19;20046;-75
2022/09/30 02:46:34;;;;;;;8.80;6.95;;;;;;;8.32;81.52;97481.66;7386555;19;20497;-75
2022/09/30 02:49:07;;;;;;;8.57;7.15;;;;;;;8.33;81.30;97476.22;7388781;19;20010;-75
2022/09/30 02:51:38;;;;;;;11.73;7.15;;;;;;;8.36;81.37;97478.53;7386726;19;20070;-75
2022/09/30 02:54:13;;;;;;;7.70;6.70;;;;;;;8.39;81.21;97477.41;7385899;19;20031;-75
2022/09/30 02:56:59;;;;;;;10.38;7.28;;;;;;;8.33;81.41;97484.13;7385490;19;20696;-76
2022/09/30 02:59:26;;;;;;;9.18;6.28;;;;;;;8.34;81.21;97485.75;7385469;19;20019;-76
2022/09/30 03:01:53;;;;;;;9.82;6.13;;;;;;;8.25;81.24;97488.56;7385199;19;20138;-75
2022/09/30 03:04:22;;;;;;;13.07;6.40;;;;;;;8.12;81.45;97491.69;7385058;19;20014;-75
2022/09/30 03:06:49;;;;;;;9.38;6.65;;;;;;;7.94;82.28;97498.88;7381853;19;20045;-75
2022/09/30 03:09:16;;;;;;;8.93;6.85;;;;;;;7.94;81.87;97502.34;7384965;19;20014;-75
2022/09/30 03:11:43;;;;;;;6.75;6.05;;;;;;;7.93;81.29;97505.16;7381217;19;20360;-75
2022/09/30 03:14:31;;;;;;;9.52;6.68;;;;;;;7.85;81.77;97501.50;7384482;19;20017;-75
2022/09/30 03:17:28;;;;;;;10.88;6.55;;;;;;;7.79;81.68;97509.19;7381166;19;20015;-75
2022/09/30 03:20:13;;;;;;;9.43;6.10;;;;;;;7.72;81.65;97501.13;7388208;19;20518;-75
2022/09/30 03:23:08;;;;;;;6.85;5.82;;;;;;;7.74;81.55;97503.56;7386852;19;20026;-74
2022/09/30 03:25:44;;;;;;;10.07;6.50;;;;;;;7.73;81.35;97512.47;7384496;19;20019;-75
2022/09/30 03:28:19;;;;;;;9.48;6.10;;;;;;;7.60;81.73;97518.16;7383628;19;20006;-75
2022/09/30 03:30:54;;;;;;;10.02;5.70;;;;;;;7.63;81.56;97513.41;7384681;19;20050;-75
2022/09/30 03:33:24;;;;;;;10.10;6.78;;;;;;;7.59;81.59;97522.63;7385994;19;20052;-75
2022/09/30 03:36:19;;;;;;;12.90;6.47;;;;;;;7.59;81.82;97525.25;7387296;19;20077;-76
2022/09/30 03:38:48;;;;;;;9.35;5.88;;;;;;;7.61;81.77;97520.66;7385168;19;20018;-76
2022/09/30 03:41:30;;;;;;;8.93;6.20;;;;;;;7.53;82.01;97528.53;7382404;19;20021;-75
2022/09/30 03:44:02;;;;;;;8.77;6.05;;;;;;;7.57;81.79;97526.38;7382490;19;20114;-74
2022/09/30 03:46:42;;;;;;;9.02;6.40;;;;;;;7.57;82.15;97518.50;7380002;19;20044;-75
2022/09/30 03:49:13;;;;;;;7.68;6.30;;;;;;;7.59;81.98;97527.88;7383871;19;20015;-75
2022/09/30 03:51:41;;;;;;;9.27;6.32;;;;;;;7.64;81.77;97522.97;7384699;19;20015;-75
2022/09/30 03:54:10;;;;;;;7.75;6.15;;;;;;;7.67;81.59;97521.84;7385793;19;20046;-75
2022/09/30 03:56:41;;;;;;;8.73;6.22;;;;;;;7.72;81.52;97526.63;7393038;19;20038;-75
2022/09/30 03:59:14;;;;;;;9.88;7.18;;;;;;;7.71;81.60;97525.78;7395145;19;20018;-75
2022/09/30 04:01:41;;;;;;;8.55;6.53;;;;;;;7.65;81.51;97534.31;7395313;19;20030;-75
2022/09/30 04:04:07;;;;;;;9.95;6.43;;;;;;;7.60;81.50;97533.97;7399465;19;20443;-75
2022/09/30 04:06:34;;;;;;;9.20;6.78;;;;;;;7.58;81.44;97536.78;7397778;19;20038;-75
2022/09/30 04:09:01;;;;;;;12.23;6.53;;;;;;;7.53;81.60;97535.56;7399639;19;20021;-75
2022/09/30 04:11:28;;;;;;;8.90;6.22;;;;;;;7.37;82.34;97538.94;7399842;19;20363;-75
2022/09/30 04:13:55;;;;;;;12.20;6.60;;;;;;;7.38;81.74;97545.88;7401216;19;20022;-75
2022/09/30 04:16:22;;;;;;;7.15;6.03;;;;;;;7.38;81.46;97554.59;7396372;19;20106;-75
2022/09/30 04:18:49;;;;;;;10.75;6.82;;;;;;;7.32;81.36;97554.38;7398557;19;20018;-75
2022/09/30 04:21:16;;;;;;;11.30;7.78;;;;;;;7.21;81.72;97555.44;7393862;19;20026;-74
2022/09/30 04:23:43;;;;;;;33.40;9.07;;;;;;;7.03;82.35;97563.41;7399274;19;20015;-75
2022/09/30 04:26:15;;;;;;;26.55;8.55;;;;;;;6.92;82.75;97563.63;7399152;19;20391;-75
2022/09/30 04:28:42;;;;;;;25.05;8.60;;;;;;;6.96;82.91;97563.19;7397742;19;20026;-74
2022/09/30 04:31:10;;;;;;;26.50;8.73;;;;;;;6.86;82.77;97562.44;7394694;19;20477;-75
2022/09/30 04:33:38;;;;;;;17.80;7.93;;;;;;;6.80;82.94;97563.06;7396776;19;20023;-75
2022/09/30 04:36:05;;;;;;;9.80;6.88;;;;;;;6.74;82.74;97566.28;7396619;19;20018;-75
2022/09/30 04:38:33;;;;;;;9.30;7.43;;;;;;;6.71;82.38;97559.50;7394660;19;20034;-76
2022/09/30 04:41:02;;;;;;;12.10;7.50;;;;;;;6.62;82.37;97570.94;7395751;19;20026;-76
2022/09/30 04:43:29;;;;;;;13.90;8.03;;;;;;;6.54;82.38;97563.81;7397373;19;20041;-76
2022/09/30 04:46:02;;;;;;;9.43;7.37;;;;;;;6.47;83.14;97575.88;7398223;19;20052;-76
2022/09/30 04:48:30;;;;;;;20.90;7.53;;;;;;;6.43;83.30;97571.91;7397946;19;20010;-75
2022/09/30 04:51:00;;;;;;;10.57;6.20;;;;;;;6.52;83.22;97571.00;7391761;19;20019;-76
2022/09/30 04:53:38;;;;;;;8.70;7.23;;;;;;;6.62;82.67;97567.50;7393262;19;20018;-75
2022/09/30 04:56:06;;;;;;;10.98;6.65;;;;;;;6.66;82.66;97571.47;7395732;19;20026;-75
2022/09/30 04:58:37;;;;;;;44.55;9.70;;;;;;;6.57;82.76;97579.28;7393006;19;20089;-75
2022/09/30 05:01:08;;;;;;;13.73;9.10;;;;;;;6.56;83.62;97589.94;7393550;19;20026;-76
2022/09/30 05:03:35;;;;;;;10.83;9.00;;;;;;;6.55;83.31;97591.72;7398827;19;20022;-75
2022/09/30 05:06:03;;;;;;;31.13;10.53;;;;;;;6.48;83.27;97598.56;7394714;19;20042;-76
2022/09/30 05:08:32;;;;;;;31.77;10.77;;;;;;;6.54;83.40;97595.34;7380045;19;20458;-75
2022/09/30 05:11:04;;;;;;;17.57;11.30;;;;;;;6.57;82.96;97595.03;7388827;19;20391;-76
2022/09/30 05:13:33;;;;;;;13.82;10.50;;;;;;;6.67;82.82;97600.22;7392353;19;20015;-76
2022/09/30 05:16:01;;;;;;;14.37;10.30;;;;;;;6.67;82.67;97602.03;7394235;19;20039;-77
2022/09/30 05:18:27;;;;;;;18.00;10.90;;;;;;;6.67;82.67;97609.94;7390407;19;20932;-77
2022/09/30 05:20:56;;;;;;;21.67;10.57;;;;;;;6.75;83.50;97615.25;7391749;19;20018;-76
2022/09/30 05:23:24;;;;;;;38.07;10.97;;;;;;;6.79;83.68;97606.94;7384790;19;20010;-76
2022/09/30 05:25:51;;;;;;;14.90;10.40;;;;;;;6.87;83.59;97613.22;7388372;19;20010;-76
2022/09/30 05:28:18;;;;;;;17.70;10.67;;;;;;;6.86;83.50;97607.13;7387637;19;20704;-77
2022/09/30 05:30:45;;;;;;;24.80;11.50;;;;;;;6.82;83.43;97619.78;7388795;19;20022;-77
2022/09/30 05:33:13;;;;;;;33.47;11.60;;;;;;;6.63;83.92;97625.16;7388577;19;20037;-76
2022/09/30 05:35:40;;;;;;;28.57;14.40;;;;;;;6.51;84.19;97621.09;7390670;19;20014;-76
2022/09/30 05:38:08;;;;;;;26.53;11.93;;;;;;;6.49;84.69;97618.59;7390320;19;20007;-77
2022/09/30 05:40:39;;;;;;;57.47;12.33;;;;;;;6.49;84.67;97621.25;7387472;19;20033;-76
2022/09/30 05:43:06;;;;;;;35.47;9.37;;;;;;;6.50;84.28;97625.53;7387413;19;20042;-76
2022/09/30 05:45:33;;;;;;;36.93;9.63;;;;;;;6.47;84.13;97631.06;7390289;19;20047;-75
2022/09/30 05:48:00;;;;;;;27.70;10.13;;;;;;;6.53;84.29;97633.13;7387682;19;20074;-76
2022/09/30 05:50:27;;;;;;;32.47;9.90;;;;;;;6.63;84.84;97629.59;7391413;19;20023;-76
2022/09/30 05:52:54;;;;;;;32.03;11.03;;;;;;;6.83;84.48;97639.00;7392043;19;20018;-77
2022/09/30 05:55:23;;;;;;;61.77;11.27;;;;;;;6.84;84.45;97643.25;7388921;19;20014;-77
2022/09/30 05:57:51;;;;;;;14.30;9.40;;;;;;;6.93;84.28;97637.13;7384190;19;20015;-77
2022/09/30 06:00:18;;;;;;;13.70;9.33;;;;;;;6.93;83.84;97642.38;7383203;19;20042;-76
2022/09/30 06:02:46;;;;;;;15.03;8.27;;;;;;;7.01;83.56;97646.88;7387933;19;20025;-76
2022/09/30 06:05:12;;;;;;;10.67;8.63;;;;;;;6.99;83.18;97647.03;7382061;19;20021;-77
2022/09/30 06:07:39;;;;;;;28.77;10.23;;;;;;;6.96;83.25;97647.31;7385314;19;20015;-77
2022/09/30 06:10:10;;;;;;;27.67;9.57;;;;;;;7.03;83.12;97637.03;7383711;19;20039;-76
2022/09/30 06:12:38;;;;;;;17.37;10.87;;;;;;;7.11;83.03;97649.41;7388554;19;20753;-77
2022/09/30 06:15:05;;;;;;;15.77;10.83;;;;;;;7.15;83.05;97648.16;7386345;19;20019;-77
2022/09/30 06:17:32;;;;;;;22.90;10.30;;;;;;;7.19;83.05;97652.97;7387966;19;20037;-76
2022/09/30 06:19:59;;;;;;;22.43;10.93;;;;;;;7.11;83.95;97660.78;7389520;19;20038;-76
2022/09/30 06:22:26;;;;;;;13.10;9.27;;;;;;;7.38;83.49;97657.22;7388950;19;20043;-77
2022/09/30 06:24:53;;;;;;;15.07;9.73;;;;;;;7.58;83.58;97660.50;7391944;19;20025;-77
2022/09/30 06:27:21;;;;;;;41.80;9.00;;;;;;;7.63;83.55;97662.63;7390597;19;20046;-76
2022/09/30 06:29:48;;;;;;;25.38;9.65;;;;;;;7.62;83.60;97674.16;7388456;19;20027;-76
2022/09/30 06:32:14;;;;;;;20.80;9.27;;;;;;;7.71;83.38;97673.22;7387312;19;20034;-76
2022/09/30 06:34:41;;;;;;;17.33;10.37;;;;;;;7.63;83.48;97673.97;7388253;19;20017;-76
2022/09/30 06:37:08;;;;;;;74.70;11.13;;;;;;;7.61;83.63;97677.75;7389775;19;20011;-76
2022/09/30 06:39:34;;;;;;;23.50;8.90;;;;;;;7.58;82.88;97688.59;7390633;19;20022;-75
2022/09/30 06:42:01;;;;;;;13.47;8.93;;;;;;;7.64;82.84;97688.00;7389132;19;20046;-77
2022/09/30 06:44:29;;;;;;;17.37;11.27;;;;;;;7.59;82.83;97687.63;7388335;19;20026;-76
2022/09/30 06:46:58;;;;;;;14.37;10.53;;;;;;;7.70;83.54;97697.91;7388126;19;20019;-76
2022/09/30 06:49:26;;;;;;;17.63;10.23;;;;;;;8.01;83.17;97690.38;7388097;19;20022;-76
2022/09/30 06:52:02;;;;;;;14.98;10.90;;;;;;;8.14;83.21;97689.94;7387464;19;20776;-75
2022/09/30 06:54:29;;;;;;;20.58;10.13;;;;;;;8.10;83.30;97691.22;7390740;19;20014;-76
2022/09/30 06:56:56;;;;;;;17.55;11.02;;;;;;;8.25;83.25;97702.00;7390174;19;20022;-77
2022/09/30 06:59:23;;;;;;;21.33;11.15;;;;;;;8.36;82.61;97699.91;7388874;19;20552;-76
2022/09/30 07:01:50;;;;;;;20.73;9.60;;;;;;;8.48;81.86;97703.13;7388463;19;20018;-77
2022/09/30 07:04:17;;;;;;;31.88;11.15;;;;;;;8.60;81.53;97703.66;7386902;19;20019;-77
2022/09/30 07:06:44;;;;;;;25.88;10.15;;;;;;;8.51;81.19;97710.72;7386389;19;20156;-76
2022/09/30 07:09:11;;;;;;;18.58;10.00;;;;;;;8.54;81.18;97713.03;7388023;19;20042;-77
2022/09/30 07:11:38;;;;;;;17.02;10.35;;;;;;;8.59;80.87;97719.66;7388017;19;20019;-76
2022/09/30 07:14:06;;;;;;;34.95;11.02;;;;;;;8.38;80.94;97717.41;7388197;19;20015;-77
2022/09/30 07:16:33;;;;;;;29.60;10.68;;;;;;;8.58;80.97;97729.34;7390301;19;20034;-77
2022/09/30 07:19:01;;;;;;;19.48;10.68;;;;;;;8.58;80.54;97732.00;7387192;19;20048;-76
2022/09/30 07:21:29;;;;;;;37.45;12.00;;;;;;;8.57;80.55;97723.25;7384440;19;20010;-77
2022/09/30 07:23:57;;;;;;;34.35;11.73;;;;;;;8.42;80.94;97724.03;7387338;19;20014;-77
2022/09/30 07:26:26;;;;;;;29.75;11.70;;;;;;;8.55;81.01;97734.94;7388011;19;20046;-76
2022/09/30 07:28:53;;;;;;;24.27;12.20;;;;;;;8.76;81.16;97732.72;7389058;19;20015;-77
2022/09/30 07:31:22;;;;;;;47.67;12.85;;;;;;;9.02;80.74;97737.91;7386855;19;20011;-77
2022/09/30 07:34:01;;;;;;;28.92;11.43;;;;;;;9.26;79.75;97740.75;7388161;19;20021;-77
2022/09/30 07:36:31;;;;;;;21.45;11.55;;;;;;;9.23;79.46;97726.91;7386015;19;20096;-76
2022/09/30 07:39:04;;;;;;;19.95;12.65;;;;;;;9.50;79.24;97734.66;7387482;19;20371;-76
2022/09/30 07:41:33;;;;;;;19.08;12.70;;;;;;;9.41;78.79;97736.50;7388227;19;20022;-76
2022/09/30 07:44:00;;;;;;;21.98;13.20;;;;;;;9.49;78.43;97731.22;7388439;19;20010;-76
2022/09/30 07:46:29;;;;;;;17.67;12.13;;;;;;;9.57;78.12;97733.84;7386706;19;20116;-76
2022/09/30 07:49:00;;;;;;;17.55;13.52;;;;;;;9.59;78.43;97741.63;7387505;19;20011;-76
2022/09/30 07:51:30;;;;;;;19.75;14.43;;;;;;;9.35;79.36;97747.72;7387518;19;20014;-76
2022/09/30 07:54:01;;;;;;;18.08;13.60;;;;;;;9.46;79.68;97752.66;7386617;19;20046;-76
2022/09/30 07:56:28;;;;;;;20.58;14.88;;;;;;;9.94;78.83;97760.75;7379924;19;20011;-76
2022/09/30 07:59:15;;;;;;;18.77;13.70;;;;;;;10.35;77.81;97760.69;7386249;19;20029;-76
2022/09/30 08:01:42;;;;;;;20.38;13.13;;;;;;;10.66;76.40;97760.78;7384954;19;20026;-77
2022/09/30 08:04:10;;;;;;;21.17;15.30;;;;;;;11.24;75.81;97772.72;7387846;19;20025;-77
2022/09/30 08:06:44;;;;;;;16.92;12.77;;;;;;;11.34;75.19;97761.91;7388383;19;20052;-76
2022/09/30 08:09:12;;;;;;;19.67;14.57;;;;;;;11.55;74.67;97763.94;7384622;19;20011;-76
2022/09/30 08:11:40;;;;;;;17.75;13.30;;;;;;;11.62;73.98;97775.47;7379877;19;20018;-76
2022/09/30 08:14:06;;;;;;;15.38;12.80;;;;;;;11.65;72.63;97783.06;7383526;19;20370;-76
2022/09/30 08:16:33;;;;;;;16.85;13.38;;;;;;;11.57;73.32;97783.13;7387423;19;20014;-77
2022/09/30 08:19:01;;;;;;;18.08;12.57;;;;;;;11.53;73.28;97787.97;7387880;19;20546;-76
2022/09/30 08:21:28;;;;;;;18.05;13.50;;;;;;;11.53;73.21;97784.47;7385674;19;20030;-77
2022/09/30 08:23:56;;;;;;;18.58;13.27;;;;;;;11.64;72.69;97787.53;7386540;19;20475;-77
2022/09/30 08:26:23;;;;;;;21.55;14.32;;;;;;;11.50;73.64;97790.13;7386162;19;20014;-76
2022/09/30 08:28:50;;;;;;;18.15;13.55;;;;;;;11.49;73.00;97791.94;7381808;19;20023;-75
2022/09/30 08:31:21;;;;;;;17.58;13.57;;;;;;;11.32;74.14;97791.25;7385076;19;20358;-76
2022/09/30 08:33:49;;;;;;;16.70;13.40;;;;;;;11.46;73.29;97787.00;7387489;19;20030;-76
2022/09/30 08:36:18;;;;;;;18.13;13.85;;;;;;;11.45;73.64;97789.81;7387535;19;20289;-76
2022/09/30 08:38:44;;;;;;;18.98;14.20;;;;;;;11.28;74.42;97792.56;7385103;19;22453;-76
2022/09/30 08:41:23;;;;;;;18.73;13.70;;;;;;;11.35;74.21;97795.38;7387046;19;20031;-77
2022/09/30 08:44:27;;;;;;;15.45;13.40;;;;;;;11.15;74.76;97794.97;7389581;19;20493;-77
2022/09/30 08:47:01;;;;;;;19.70;14.20;;;;;;;11.14;75.37;97788.03;7391102;19;20034;-77
2022/09/30 08:49:53;;;;;;;17.58;14.23;;;;;;;11.01;75.77;97787.78;7392349;19;20039;-77
2022/09/30 08:52:24;;;;;;;17.90;14.77;;;;;;;10.84;76.72;97792.28;7390130;19;20533;-76
2022/09/30 08:55:19;;;;;;;19.63;14.18;;;;;;;10.96;76.42;97799.69;7392121;19;20019;-76
2022/09/30 08:57:46;;;;;;;19.27;13.55;;;;;;;11.06;76.50;97796.00;7391851;19;20044;-76
2022/09/30 09:00:16;;;;;;;23.77;13.77;;;;;;;11.08;76.45;97794.81;7388226;19;20387;-76
2022/09/30 09:02:54;;;;;;;19.58;14.18;;;;;;;10.73;77.24;97788.19;7389924;19;20007;-76
2022/09/30 09:05:50;;;;;;;18.88;13.73;;;;;;;10.97;76.63;97792.56;7391881;19;20021;-77
2022/09/30 09:08:36;;;;;;;19.17;13.55;;;;;;;11.03;77.02;97791.88;7389535;19;20026;-76
2022/09/30 09:11:16;;;;;;;21.25;16.02;;;;;;;11.23;76.05;97794.09;7392176;19;20018;-77
2022/09/30 09:13:55;;;;;;;20.40;15.50;;;;;;;11.43;76.14;97796.13;7390180;19;20038;-76
2022/09/30 09:16:35;;;;;;;19.20;15.05;;;;;;;11.60;75.89;97794.19;7389464;19;20044;-76
2022/09/30 09:19:11;;;;;;;17.45;14.10;;;;;;;11.77;74.42;97791.41;7389591;19;20470;-76
2022/09/30 09:21:59;;;;;;;17.15;13.43;;;;;;;12.07;73.26;97792.38;7388586;19;20022;-76
2022/09/30 09:24:32;;;;;;;16.73;13.25;;;;;;;12.15;71.98;97787.00;7391911;19;20305;-76
2022/09/30 09:27:12;;;;;;;15.50;10.85;;;;;;;12.37;71.00;97793.22;7390933;19;20018;-76
2022/09/30 09:29:49;;;;;;;13.95;10.68;;;;;;;12.63;70.53;97794.63;7390852;19;20030;-76
2022/09/30 09:32:17;;;;;;;12.57;10.40;;;;;;;12.98;70.57;97787.75;7388048;19;20789;-77
2022/09/30 09:34:48;;;;;;;12.25;9.82;;;;;;;13.27;69.21;97788.72;7388936;19;20342;-77
2022/09/30 09:40:57;;;;;;;15.13;9.60;;;;;;;13.64;68.91;97797.50;7392512;19;20030;-76
2022/09/30 09:43:39;;;;;;;16.92;10.07;;;;;;;13.22;68.97;97799.03;7388689;19;20039;-77
2022/09/30 09:46:21;;;;;;;10.67;9.57;;;;;;;13.00;69.61;97796.34;7393254;19;20034;-77
2022/09/30 09:49:19;;;;;;;12.60;9.90;;;;;;;13.10;70.19;97796.88;7390559;19;20489;-77
2022/09/30 09:52:13;;;;;;;14.40;10.15;;;;;;;12.86;70.21;97803.31;7387281;19;20014;-77
2022/09/30 09:54:42;;;;;;;12.15;10.30;;;;;;;13.00;69.91;97803.50;7390010;19;20034;-77
2022/09/30 09:57:11;;;;;;;11.13;9.70;;;;;;;13.03;71.27;97801.28;7389144;19;20026;-74
2022/09/30 09:59:54;;;;;;;11.75;10.27;;;;;;;13.14;71.07;97798.16;7388665;19;20030;-75
2022/09/30 10:02:28;;;;;;;;;;;;;;;13.26;70.56;97801.19;7390556;19;20011;-75
2022/09/30 10:05:10;;;;;;;14.75;9.35;;;;;;;13.40;71.20;97802.16;7391057;19;19922;-75
2022/09/30 10:07:37;;;;;;;10.93;9.07;;;;;;;13.48;71.51;97798.56;7387674;19;20050;-75
2022/09/30 10:10:18;;;;;;;10.90;9.75;;;;;;;13.38;71.03;97810.31;7388447;19;20034;-74
2022/09/30 10:12:49;;;;;;;10.23;8.82;;;;;;;13.42;69.27;97810.75;7392230;19;20015;-75
2022/09/30 10:15:26;;;;;;;11.18;8.23;;;;;;;13.51;70.40;97814.16;7389344;19;20021;-75
2022/09/30 10:17:55;;;;;;;11.40;8.90;;;;;;;13.60;70.86;97815.66;7390676;19;20098;-75
2022/09/30 10:20:33;;;;;;;10.57;7.95;;;;;;;13.63;68.31;97814.47;7387387;19;20043;-75
2022/09/30 10:23:07;;;;;;;11.82;8.68;;;;;;;13.72;65.91;97808.03;7387717;19;20391;-75
2022/09/30 10:25:34;;;;;;;9.80;8.65;;;;;;;13.61;65.53;97799.53;7388633;19;20018;-75
2022/09/30 10:28:03;;;;;;;10.35;8.48;;;;;;;13.73;68.60;97809.66;7387820;19;20395;-75
2022/09/30 10:30:37;;;;;;;15.98;9.73;;;;;;;13.68;68.73;97804.09;7391250;19;20021;-75
2022/09/30 10:33:21;;;;;;;10.70;9.60;;;;;;;13.98;68.90;97816.25;7391987;19;20022;-75
2022/09/30 10:36:10;;;;;;;10.68;9.45;;;;;;;14.13;67.89;97812.66;7392300;19;20007;-75
2022/09/30 10:38:51;;;;;;;12.05;8.70;;;;;;;14.07;67.87;97818.78;7387990;19;20014;-74
2022/09/30 10:41:30;;;;;;;17.02;9.32;;;;;;;13.93;64.39;97823.13;7384900;19;20047;-74
2022/09/30 10:43:59;;;;;;;9.27;7.65;;;;;;;13.93;65.00;97818.66;7385801;19;20015;-75
2022/09/30 10:46:30;;;;;;;10.35;7.88;;;;;;;14.10;68.33;97816.53;7388257;19;20104;-75
2022/09/30 10:48:59;;;;;;;11.45;7.40;;;;;;;14.26;66.35;97812.78;7388290;19;20412;-75
2022/09/30 10:51:32;;;;;;;9.02;7.80;;;;;;;14.35;65.50;97822.28;7386212;19;20042;-74
2022/09/30 10:54:04;;;;;;;9.20;6.88;;;;;;;14.27;66.62;97825.09;7390349;19;20019;-75
2022/09/30 10:56:40;;;;;;;10.95;7.75;;;;;;;14.20;63.92;97817.03;7385857;19;20017;-75
2022/09/30 10:59:18;;;;;;;8.55;7.28;;;;;;;14.29;63.13;97815.03;7382673;19;20526;-74
2022/09/30 11:01:49;;;;;;;7.78;6.25;;;;;;;14.35;64.68;97811.63;7383743;19;20022;-74
2022/09/30 11:04:25;;;;;;;7.07;5.97;;;;;;;14.39;61.89;97815.53;7388438;19;20039;-75
2022/09/30 11:06:58;;;;;;;8.23;5.73;;;;;;;14.47;65.56;97810.06;7384793;19;20018;-75
2022/09/30 11:09:36;;;;;;;8.93;5.25;;;;;;;14.50;66.22;97815.00;7386179;19;20315;-75
2022/09/30 11:12:40;;;;;;;7.28;5.25;;;;;;;14.67;65.94;97815.56;7385417;19;20043;-75
2022/09/30 11:15:22;;;;;;;7.18;4.38;;;;;;;14.64;60.59;97815.97;7384134;19;20018;-75
2022/09/30 11:17:53;;;;;;;5.57;4.20;;;;;;;14.66;64.99;97813.91;7385398;19;20015;-75
2022/09/30 11:20:24;;;;;;;10.02;3.97;;;;;;;14.79;60.30;97807.03;7387209;19;20525;-75
2022/09/30 11:22:59;;;;;;;5.82;3.10;;;;;;;14.65;57.48;97800.81;7386368;19;20010;-73
2022/09/30 11:25:28;;;;;;;6.13;3.75;;;;;;;14.71;56.72;97803.50;7388804;19;20026;-74
2022/09/30 11:27:57;;;;;;;6.03;3.17;;;;;;;14.64;60.00;97797.31;7388536;19;20011;-74
2022/09/30 11:31:05;;;;;;;5.25;3.60;;;;;;;14.73;62.04;97810.47;7386580;19;20094;-74
2022/09/30 11:33:51;;;;;;;3.17;2.50;;;;;;;14.82;62.67;97807.44;7386724;19;20651;-75
2022/09/30 11:36:30;;;;;;;4.53;2.90;;;;;;;14.76;63.97;97818.06;7386733;19;20018;-75
2022/09/30 11:39:18;;;;;;;3.20;2.30;;;;;;;14.79;60.41;97809.69;7385595;19;20018;-75
2022/09/30 11:41:53;;;;;;;3.25;1.88;;;;;;;14.88;59.74;97800.53;7385712;19;20043;-76
2022/09/30 11:44:33;;;;;;;4.57;2.42;;;;;;;14.91;56.15;97805.47;7385034;19;20029;-75
2022/09/30 11:47:30;;;;;;;2.35;2.10;;;;;;;14.78;55.13;97816.84;7379359;19;20016;-74
2022/09/30 11:50:18;;;;;;;2.70;1.88;;;;;;;14.68;59.17;97809.22;7383632;19;20363;-76
2022/09/30 11:53:12;;;;;;;2.38;1.65;;;;;;;14.78;60.64;97806.19;7384228;19;20006;-75
2022/09/30 11:56:33;;;;;;;4.03;1.50;;;;;;;14.70;61.34;97814.34;7381709;19;20078;-75
2022/09/30 11:59:10;;;;;;;4.35;1.95;;;;;;;14.55;55.98;97810.97;7376984;19;20962;-75
2022/09/30 12:01:46;;;;;;;2.95;1.42;;;;;;;14.50;55.84;97803.53;7381618;19;20538;-76
2022/09/30 12:04:19;;;;;;;4.03;1.55;;;;;;;14.69;51.74;97804.69;7381142;19;20007;-75